CheckWX is a tool to help pilots better visualize weather data.  It is not intended as a substitute for an official pre-flight weather briefing.

12:19:33 UTC

KSCR METAR
Siler City Municipal Airport
Siler City, North Carolina, USA
Current

40 mins ago

KSCR 221140Z AUTO 01006KT 10SM RA OVC036 08/07 A3026 RMK AO2 P0001 T00780073
Observed
Feb-22 @ 11:40 UTC
Wind
  • 010° at 6 KTS
Visibility
10 SM
Flight Rules
VFR
Conditions
Rain
Cloud Levels
  • Overcast at 3,600' AGL
Temperature
C / 46°F
Dewpoint
C / 45°F
Humidity
93%
Altimeter
30.26" Hg
Pressure
1024.72 hPa
Current Rain
0.01"
Previous

60 mins ago

KSCR 221120Z AUTO 01003KT 10SM DZ BKN036 BKN043 OVC050 08/07 A3026 RMK AO2 T00800072
Observed
Feb-22 @ 11:20 UTC
Wind
  • 010° at 3 KTS
Visibility
10 SM
Flight Rules
VFR
Conditions
Drizzle
Cloud Levels
  • Broken at 3,600' AGL
  • Broken at 4,300' AGL
  • Overcast at 5,000' AGL
Temperature
C / 46°F
Dewpoint
C / 45°F
Humidity
93%
Altimeter
30.26" Hg
Pressure
1024.72 hPa
Previous

1 hour ago

KSCR 221100Z AUTO 02006KT 340V040 10SM -RA BKN043 OVC050 08/07 A3024 RMK AO2 T00810070
Observed
Feb-22 @ 11:00 UTC
Wind
  • 020° at 6 KTS
Visibility
10 SM
Flight Rules
VFR
Conditions
Light Rain
Cloud Levels
  • Broken at 4,300' AGL
  • Overcast at 5,000' AGL
Temperature
C / 46°F
Dewpoint
C / 45°F
Humidity
93%
Altimeter
30.24" Hg
Pressure
1024.02 hPa